sensor_id;sensor_type;location;lat;lon;timestamp;P1;durP1;ratioP1;P2;durP2;ratioP2
21472;SDS011;10898;48.072;11.682;2024-03-22T00:01:26;11.32;;;8.80;;
21472;SDS011;10898;48.072;11.682;2024-03-22T00:03:26;11.52;;;8.80;;
21472;SDS011;10898;48.072;11.682;2024-03-22T00:05:27;9.23;;;7.70;;
21472;SDS011;10898;48.072;11.682;2024-03-22T00:07:28;10.95;;;8.90;;
21472;SDS011;10898;48.072;11.682;2024-03-22T00:09:29;12.15;;;8.90;;
21472;SDS011;10898;48.072;11.682;2024-03-22T00:11:30;11.38;;;9.38;;
21472;SDS011;10898;48.072;11.682;2024-03-22T00:13:31;10.88;;;9.00;;
21472;SDS011;10898;48.072;11.682;2024-03-22T00:15:32;11.73;;;8.88;;
21472;SDS011;10898;48.072;11.682;2024-03-22T00:17:33;12.07;;;9.50;;
21472;SDS011;10898;48.072;11.682;2024-03-22T00:19:34;11.82;;;9.43;;
21472;SDS011;10898;48.072;11.682;2024-03-22T00:21:35;11.35;;;8.88;;
21472;SDS011;10898;48.072;11.682;2024-03-22T00:23:36;11.15;;;8.40;;
21472;SDS011;10898;48.072;11.682;2024-03-22T00:25:37;11.52;;;9.10;;
21472;SDS011;10898;48.072;11.682;2024-03-22T00:27:37;11.00;;;8.85;;
21472;SDS011;10898;48.072;11.682;2024-03-22T00:29:38;11.18;;;8.68;;
21472;SDS011;10898;48.072;11.682;2024-03-22T00:31:39;11.60;;;8.50;;
21472;SDS011;10898;48.072;11.682;2024-03-22T00:33:40;12.63;;;9.30;;
21472;SDS011;10898;48.072;11.682;2024-03-22T00:35:41;11.35;;;8.52;;
21472;SDS011;10898;48.072;11.682;2024-03-22T00:37:42;10.00;;;8.15;;
21472;SDS011;10898;48.072;11.682;2024-03-22T00:39:43;12.30;;;9.15;;
21472;SDS011;10898;48.072;11.682;2024-03-22T00:41:44;10.48;;;7.82;;
21472;SDS011;10898;48.072;11.682;2024-03-22T00:43:45;10.38;;;7.60;;
21472;SDS011;10898;48.072;11.682;2024-03-22T00:45:46;8.65;;;7.63;;
21472;SDS011;10898;48.072;11.682;2024-03-22T00:47:47;9.35;;;8.02;;
21472;SDS011;10898;48.072;11.682;2024-03-22T00:49:48;10.38;;;7.60;;
21472;SDS011;10898;48.072;11.682;2024-03-22T00:51:49;9.30;;;7.63;;
21472;SDS011;10898;48.072;11.682;2024-03-22T00:53:50;10.20;;;8.10;;
21472;SDS011;10898;48.072;11.682;2024-03-22T00:55:51;10.82;;;7.95;;
21472;SDS011;10898;48.072;11.682;2024-03-22T00:57:52;9.73;;;8.35;;
21472;SDS011;10898;48.072;11.682;2024-03-22T00:59:53;11.68;;;8.93;;
21472;SDS011;10898;48.072;11.682;2024-03-22T01:01:53;10.68;;;8.35;;
21472;SDS011;10898;48.072;11.682;2024-03-22T01:03:54;11.70;;;9.07;;
21472;SDS011;10898;48.072;11.682;2024-03-22T01:05:55;11.48;;;8.88;;
21472;SDS011;10898;48.072;11.682;2024-03-22T01:07:57;11.98;;;9.13;;
21472;SDS011;10898;48.072;11.682;2024-03-22T01:09:58;10.77;;;8.50;;
21472;SDS011;10898;48.072;11.682;2024-03-22T01:11:59;11.48;;;8.75;;
21472;SDS011;10898;48.072;11.682;2024-03-22T01:14:00;10.38;;;8.65;;
21472;SDS011;10898;48.072;11.682;2024-03-22T01:16:00;8.93;;;8.00;;
21472;SDS011;10898;48.072;11.682;2024-03-22T01:18:01;10.40;;;8.20;;
21472;SDS011;10898;48.072;11.682;2024-03-22T01:20:02;9.32;;;7.70;;
21472;SDS011;10898;48.072;11.682;2024-03-22T01:22:03;10.45;;;9.02;;
21472;SDS011;10898;48.072;11.682;2024-03-22T01:24:04;9.75;;;8.52;;
21472;SDS011;10898;48.072;11.682;2024-03-22T01:26:05;10.70;;;7.97;;
21472;SDS011;10898;48.072;11.682;2024-03-22T01:28:06;9.23;;;7.70;;
21472;SDS011;10898;48.072;11.682;2024-03-22T01:30:07;10.32;;;8.80;;
21472;SDS011;10898;48.072;11.682;2024-03-22T01:32:08;11.32;;;8.30;;
21472;SDS011;10898;48.072;11.682;2024-03-22T01:34:09;11.45;;;8.48;;
21472;SDS011;10898;48.072;11.682;2024-03-22T01:36:10;11.20;;;8.52;;
21472;SDS011;10898;48.072;11.682;2024-03-22T01:38:11;9.40;;;7.93;;
21472;SDS011;10898;48.072;11.682;2024-03-22T01:40:12;12.13;;;8.88;;
21472;SDS011;10898;48.072;11.682;2024-03-22T01:42:13;10.73;;;7.93;;
21472;SDS011;10898;48.072;11.682;2024-03-22T01:44:14;10.40;;;8.70;;
21472;SDS011;10898;48.072;11.682;2024-03-22T01:46:16;10.30;;;7.53;;
21472;SDS011;10898;48.072;11.682;2024-03-22T01:48:17;10.65;;;8.57;;
21472;SDS011;10898;48.072;11.682;2024-03-22T01:50:18;11.88;;;8.63;;
21472;SDS011;10898;48.072;11.682;2024-03-22T01:52:19;11.07;;;8.00;;
21472;SDS011;10898;48.072;11.682;2024-03-22T01:54:20;12.43;;;9.05;;
21472;SDS011;10898;48.072;11.682;2024-03-22T01:56:21;10.75;;;8.85;;
21472;SDS011;10898;48.072;11.682;2024-03-22T01:58:22;11.13;;;8.55;;
21472;SDS011;10898;48.072;11.682;2024-03-22T02:00:23;12.32;;;8.85;;
21472;SDS011;10898;48.072;11.682;2024-03-22T02:02:24;9.40;;;7.68;;
21472;SDS011;10898;48.072;11.682;2024-03-22T02:04:24;10.60;;;8.57;;
21472;SDS011;10898;48.072;11.682;2024-03-22T02:06:25;10.38;;;8.20;;
21472;SDS011;10898;48.072;11.682;2024-03-22T02:08:26;10.88;;;8.40;;
21472;SDS011;10898;48.072;11.682;2024-03-22T02:10:27;11.05;;;8.95;;
21472;SDS011;10898;48.072;11.682;2024-03-22T02:12:28;10.88;;;8.55;;
21472;SDS011;10898;48.072;11.682;2024-03-22T02:14:29;10.80;;;8.93;;
21472;SDS011;10898;48.072;11.682;2024-03-22T02:16:30;13.27;;;9.55;;
21472;SDS011;10898;48.072;11.682;2024-03-22T02:18:30;12.18;;;8.38;;
21472;SDS011;10898;48.072;11.682;2024-03-22T02:20:32;12.50;;;7.78;;
21472;SDS011;10898;48.072;11.682;2024-03-22T02:22:32;11.13;;;7.93;;
21472;SDS011;10898;48.072;11.682;2024-03-22T02:24:33;9.40;;;7.68;;
21472;SDS011;10898;48.072;11.682;2024-03-22T02:26:34;9.27;;;7.53;;
21472;SDS011;10898;48.072;11.682;2024-03-22T02:28:35;9.73;;;7.60;;
21472;SDS011;10898;48.072;11.682;2024-03-22T02:30:36;10.90;;;8.65;;
21472;SDS011;10898;48.072;11.682;2024-03-22T02:32:37;9.57;;;7.82;;
21472;SDS011;10898;48.072;11.682;2024-03-22T02:34:39;12.43;;;9.27;;
21472;SDS011;10898;48.072;11.682;2024-03-22T02:36:40;12.40;;;8.20;;
21472;SDS011;10898;48.072;11.682;2024-03-22T02:38:41;10.98;;;8.15;;
21472;SDS011;10898;48.072;11.682;2024-03-22T02:40:45;12.70;;;9.73;;
21472;SDS011;10898;48.072;11.682;2024-03-22T02:42:47;13.18;;;9.82;;
21472;SDS011;10898;48.072;11.682;2024-03-22T02:44:47;11.95;;;8.80;;
21472;SDS011;10898;48.072;11.682;2024-03-22T02:46:48;10.68;;;8.65;;
21472;SDS011;10898;48.072;11.682;2024-03-22T02:48:49;11.07;;;8.43;;
21472;SDS011;10898;48.072;11.682;2024-03-22T02:50:54;10.93;;;8.95;;
21472;SDS011;10898;48.072;11.682;2024-03-22T02:52:56;10.00;;;7.72;;
21472;SDS011;10898;48.072;11.682;2024-03-22T02:54:56;9.30;;;7.25;;
21472;SDS011;10898;48.072;11.682;2024-03-22T02:56:57;8.80;;;7.10;;
21472;SDS011;10898;48.072;11.682;2024-03-22T02:58:58;10.65;;;7.82;;
21472;SDS011;10898;48.072;11.682;2024-03-22T03:00:59;9.93;;;7.93;;
21472;SDS011;10898;48.072;11.682;2024-03-22T03:03:00;11.77;;;8.63;;
21472;SDS011;10898;48.072;11.682;2024-03-22T03:05:01;11.60;;;8.75;;
21472;SDS011;10898;48.072;11.682;2024-03-22T03:07:02;10.88;;;8.73;;
21472;SDS011;10898;48.072;11.682;2024-03-22T03:09:03;14.40;;;9.32;;
21472;SDS011;10898;48.072;11.682;2024-03-22T03:11:08;12.95;;;8.85;;
21472;SDS011;10898;48.072;11.682;2024-03-22T03:13:09;11.13;;;8.90;;
21472;SDS011;10898;48.072;11.682;2024-03-22T03:15:10;9.02;;;7.95;;
21472;SDS011;10898;48.072;11.682;2024-03-22T03:17:11;12.13;;;9.25;;
21472;SDS011;10898;48.072;11.682;2024-03-22T03:19:12;12.13;;;9.13;;
21472;SDS011;10898;48.072;11.682;2024-03-22T03:21:12;11.85;;;7.95;;
21472;SDS011;10898;48.072;11.682;2024-03-22T03:23:13;12.95;;;9.50;;
21472;SDS011;10898;48.072;11.682;2024-03-22T03:25:14;11.27;;;8.82;;
21472;SDS011;10898;48.072;11.682;2024-03-22T03:27:15;12.30;;;9.05;;
21472;SDS011;10898;48.072;11.682;2024-03-22T03:29:16;12.27;;;8.82;;
21472;SDS011;10898;48.072;11.682;2024-03-22T03:31:17;9.75;;;8.15;;
21472;SDS011;10898;48.072;11.682;2024-03-22T03:33:18;8.80;;;7.22;;
21472;SDS011;10898;48.072;11.682;2024-03-22T03:35:18;10.02;;;7.60;;
21472;SDS011;10898;48.072;11.682;2024-03-22T03:37:19;10.60;;;7.97;;
21472;SDS011;10898;48.072;11.682;2024-03-22T03:39:20;11.35;;;8.32;;
21472;SDS011;10898;48.072;11.682;2024-03-22T03:41:21;11.35;;;8.82;;
21472;SDS011;10898;48.072;11.682;2024-03-22T03:43:22;11.07;;;8.95;;
21472;SDS011;10898;48.072;11.682;2024-03-22T03:45:22;13.82;;;8.90;;
21472;SDS011;10898;48.072;11.682;2024-03-22T03:47:23;10.90;;;8.77;;
21472;SDS011;10898;48.072;11.682;2024-03-22T03:49:24;9.63;;;8.45;;
21472;SDS011;10898;48.072;11.682;2024-03-22T03:51:25;11.73;;;8.82;;
21472;SDS011;10898;48.072;11.682;2024-03-22T03:53:26;12.07;;;9.43;;
21472;SDS011;10898;48.072;11.682;2024-03-22T03:55:26;11.52;;;9.07;;
21472;SDS011;10898;48.072;11.682;2024-03-22T03:57:27;11.27;;;9.07;;
21472;SDS011;10898;48.072;11.682;2024-03-22T03:59:28;14.70;;;9.85;;
21472;SDS011;10898;48.072;11.682;2024-03-22T04:01:30;13.02;;;9.68;;
21472;SDS011;10898;48.072;11.682;2024-03-22T04:03:30;11.27;;;8.40;;
21472;SDS011;10898;48.072;11.682;2024-03-22T04:05:31;12.18;;;8.75;;
21472;SDS011;10898;48.072;11.682;2024-03-22T04:07:32;13.00;;;9.65;;
21472;SDS011;10898;48.072;11.682;2024-03-22T04:09:33;13.07;;;9.00;;
21472;SDS011;10898;48.072;11.682;2024-03-22T04:11:34;11.38;;;8.15;;
21472;SDS011;10898;48.072;11.682;2024-03-22T04:13:35;11.68;;;9.07;;
21472;SDS011;10898;48.072;11.682;2024-03-22T04:15:36;14.70;;;10.02;;
21472;SDS011;10898;48.072;11.682;2024-03-22T04:17:37;10.95;;;8.63;;
21472;SDS011;10898;48.072;11.682;2024-03-22T04:19:37;12.30;;;9.48;;
21472;SDS011;10898;48.072;11.682;2024-03-22T04:21:38;13.75;;;9.13;;
21472;SDS011;10898;48.072;11.682;2024-03-22T04:23:39;11.27;;;9.05;;
21472;SDS011;10898;48.072;11.682;2024-03-22T04:25:40;11.82;;;9.32;;
21472;SDS011;10898;48.072;11.682;2024-03-22T04:27:41;10.23;;;8.40;;
21472;SDS011;10898;48.072;11.682;2024-03-22T04:29:41;11.10;;;8.20;;
21472;SDS011;10898;48.072;11.682;2024-03-22T04:31:42;11.80;;;8.50;;
21472;SDS011;10898;48.072;11.682;2024-03-22T04:33:43;12.23;;;8.73;;
21472;SDS011;10898;48.072;11.682;2024-03-22T04:35:47;10.73;;;7.78;;
21472;SDS011;10898;48.072;11.682;2024-03-22T04:37:48;12.00;;;8.98;;
21472;SDS011;10898;48.072;11.682;2024-03-22T04:39:49;12.75;;;9.50;;
21472;SDS011;10898;48.072;11.682;2024-03-22T04:41:50;11.65;;;8.40;;
21472;SDS011;10898;48.072;11.682;2024-03-22T04:43:50;9.82;;;7.18;;
21472;SDS011;10898;48.072;11.682;2024-03-22T04:45:51;10.07;;;8.10;;
21472;SDS011;10898;48.072;11.682;2024-03-22T04:47:52;11.77;;;8.25;;
21472;SDS011;10898;48.072;11.682;2024-03-22T04:49:53;10.25;;;8.52;;
21472;SDS011;10898;48.072;11.682;2024-03-22T04:51:55;10.35;;;8.15;;
21472;SDS011;10898;48.072;11.682;2024-03-22T04:53:56;11.02;;;8.07;;
21472;SDS011;10898;48.072;11.682;2024-03-22T04:55:56;11.20;;;8.38;;
21472;SDS011;10898;48.072;11.682;2024-03-22T04:57:57;11.13;;;7.85;;
21472;SDS011;10898;48.072;11.682;2024-03-22T04:59:58;11.55;;;8.57;;
21472;SDS011;10898;48.072;11.682;2024-03-22T05:01:59;11.13;;;8.18;;
21472;SDS011;10898;48.072;11.682;2024-03-22T05:04:00;11.80;;;8.38;;
21472;SDS011;10898;48.072;11.682;2024-03-22T05:06:01;12.90;;;8.43;;
21472;SDS011;10898;48.072;11.682;2024-03-22T05:08:03;9.95;;;8.20;;
21472;SDS011;10898;48.072;11.682;2024-03-22T05:10:05;9.23;;;7.28;;
21472;SDS011;10898;48.072;11.682;2024-03-22T05:12:06;9.73;;;7.53;;
21472;SDS011;10898;48.072;11.682;2024-03-22T05:14:07;10.40;;;7.80;;
21472;SDS011;10898;48.072;11.682;2024-03-22T05:16:08;9.73;;;7.90;;
21472;SDS011;10898;48.072;11.682;2024-03-22T05:18:09;9.23;;;7.50;;
21472;SDS011;10898;48.072;11.682;2024-03-22T05:20:10;10.90;;;7.68;;
21472;SDS011;10898;48.072;11.682;2024-03-22T05:22:11;11.98;;;7.75;;
21472;SDS011;10898;48.072;11.682;2024-03-22T05:24:12;8.07;;;6.65;;
21472;SDS011;10898;48.072;11.682;2024-03-22T05:26:13;10.88;;;8.10;;
21472;SDS011;10898;48.072;11.682;2024-03-22T05:28:13;8.13;;;7.15;;
21472;SDS011;10898;48.072;11.682;2024-03-22T05:30:14;11.73;;;7.80;;
21472;SDS011;10898;48.072;11.682;2024-03-22T05:32:15;8.90;;;6.90;;
21472;SDS011;10898;48.072;11.682;2024-03-22T05:34:16;10.07;;;7.13;;
21472;SDS011;10898;48.072;11.682;2024-03-22T05:36:18;8.88;;;6.88;;
21472;SDS011;10898;48.072;11.682;2024-03-22T05:38:19;9.60;;;8.10;;
21472;SDS011;10898;48.072;11.682;2024-03-22T05:40:19;9.32;;;8.00;;
21472;SDS011;10898;48.072;11.682;2024-03-22T05:42:21;10.82;;;7.80;;
21472;SDS011;10898;48.072;11.682;2024-03-22T05:44:22;8.27;;;7.00;;
21472;SDS011;10898;48.072;11.682;2024-03-22T05:46:23;9.38;;;7.10;;
21472;SDS011;10898;48.072;11.682;2024-03-22T05:48:23;9.70;;;7.10;;
21472;SDS011;10898;48.072;11.682;2024-03-22T05:50:24;10.07;;;6.95;;
21472;SDS011;10898;48.072;11.682;2024-03-22T05:52:25;8.50;;;7.40;;
21472;SDS011;10898;48.072;11.682;2024-03-22T05:54:26;9.38;;;7.88;;
21472;SDS011;10898;48.072;11.682;2024-03-22T05:56:27;9.75;;;8.20;;
21472;SDS011;10898;48.072;11.682;2024-03-22T05:58:28;10.95;;;8.00;;
21472;SDS011;10898;48.072;11.682;2024-03-22T06:00:29;8.50;;;6.88;;
21472;SDS011;10898;48.072;11.682;2024-03-22T06:02:30;8.43;;;6.57;;
21472;SDS011;10898;48.072;11.682;2024-03-22T06:04:31;9.18;;;7.50;;
21472;SDS011;10898;48.072;11.682;2024-03-22T06:06:33;9.68;;;7.35;;
21472;SDS011;10898;48.072;11.682;2024-03-22T06:08:35;10.30;;;7.25;;
21472;SDS011;10898;48.072;11.682;2024-03-22T06:10:39;9.50;;;6.80;;
21472;SDS011;10898;48.072;11.682;2024-03-22T06:12:40;9.38;;;7.25;;
21472;SDS011;10898;48.072;11.682;2024-03-22T06:14:41;9.15;;;7.97;;
21472;SDS011;10898;48.072;11.682;2024-03-22T06:16:47;8.68;;;7.00;;
21472;SDS011;10898;48.072;11.682;2024-03-22T06:18:48;10.55;;;8.18;;
21472;SDS011;10898;48.072;11.682;2024-03-22T06:20:49;9.60;;;7.65;;
21472;SDS011;10898;48.072;11.682;2024-03-22T06:22:50;10.30;;;8.13;;
21472;SDS011;10898;48.072;11.682;2024-03-22T06:24:51;9.55;;;7.90;;
21472;SDS011;10898;48.072;11.682;2024-03-22T06:26:52;9.77;;;7.63;;
21472;SDS011;10898;48.072;11.682;2024-03-22T06:28:52;9.07;;;7.35;;
21472;SDS011;10898;48.072;11.682;2024-03-22T06:30:53;9.57;;;7.85;;
21472;SDS011;10898;48.072;11.682;2024-03-22T06:32:54;9.07;;;7.25;;
21472;SDS011;10898;48.072;11.682;2024-03-22T06:34:55;8.32;;;6.85;;
21472;SDS011;10898;48.072;11.682;2024-03-22T06:36:57;9.25;;;7.10;;
21472;SDS011;10898;48.072;11.682;2024-03-22T06:38:58;8.68;;;7.00;;
21472;SDS011;10898;48.072;11.682;2024-03-22T06:40:59;7.22;;;6.45;;
21472;SDS011;10898;48.072;11.682;2024-03-22T06:43:04;9.23;;;7.00;;
21472;SDS011;10898;48.072;11.682;2024-03-22T06:45:05;10.63;;;7.20;;
21472;SDS011;10898;48.072;11.682;2024-03-22T06:47:06;8.70;;;6.72;;
21472;SDS011;10898;48.072;11.682;2024-03-22T06:49:07;9.90;;;7.53;;
21472;SDS011;10898;48.072;11.682;2024-03-22T06:51:08;9.43;;;7.50;;
21472;SDS011;10898;48.072;11.682;2024-03-22T06:53:09;10.02;;;8.00;;
21472;SDS011;10898;48.072;11.682;2024-03-22T06:55:12;10.93;;;8.30;;
21472;SDS011;10898;48.072;11.682;2024-03-22T06:57:13;8.52;;;7.25;;
21472;SDS011;10898;48.072;11.682;2024-03-22T06:59:15;9.35;;;7.68;;
21472;SDS011;10898;48.072;11.682;2024-03-22T07:01:16;11.13;;;7.55;;
21472;SDS011;10898;48.072;11.682;2024-03-22T07:03:17;11.13;;;7.93;;
21472;SDS011;10898;48.072;11.682;2024-03-22T07:05:17;8.98;;;7.32;;
21472;SDS011;10898;48.072;11.682;2024-03-22T07:07:18;10.32;;;8.13;;
21472;SDS011;10898;48.072;11.682;2024-03-22T07:09:19;10.60;;;8.00;;
21472;SDS011;10898;48.072;11.682;2024-03-22T07:11:21;9.60;;;7.22;;
21472;SDS011;10898;48.072;11.682;2024-03-22T07:13:22;10.57;;;7.82;;
21472;SDS011;10898;48.072;11.682;2024-03-22T07:15:23;11.15;;;8.32;;
21472;SDS011;10898;48.072;11.682;2024-03-22T07:17:24;9.63;;;7.45;;
21472;SDS011;10898;48.072;11.682;2024-03-22T07:19:25;10.48;;;7.50;;
21472;SDS011;10898;48.072;11.682;2024-03-22T07:21:26;9.93;;;7.78;;
21472;SDS011;10898;48.072;11.682;2024-03-22T07:23:27;10.90;;;8.20;;
21472;SDS011;10898;48.072;11.682;2024-03-22T07:25:28;10.05;;;8.27;;
21472;SDS011;10898;48.072;11.682;2024-03-22T07:27:29;11.10;;;8.68;;
21472;SDS011;10898;48.072;11.682;2024-03-22T07:29:31;10.27;;;7.80;;
21472;SDS011;10898;48.072;11.682;2024-03-22T07:31:32;10.98;;;8.18;;
21472;SDS011;10898;48.072;11.682;2024-03-22T07:33:33;11.02;;;8.13;;
21472;SDS011;10898;48.072;11.682;2024-03-22T07:35:34;9.80;;;8.15;;
21472;SDS011;10898;48.072;11.682;2024-03-22T07:37:35;9.98;;;8.07;;
21472;SDS011;10898;48.072;11.682;2024-03-22T07:39:36;8.05;;;6.65;;
21472;SDS011;10898;48.072;11.682;2024-03-22T07:41:37;8.13;;;6.45;;
21472;SDS011;10898;48.072;11.682;2024-03-22T07:43:38;8.63;;;6.93;;
21472;SDS011;10898;48.072;11.682;2024-03-22T07:45:39;8.23;;;6.85;;
21472;SDS011;10898;48.072;11.682;2024-03-22T07:47:39;9.25;;;7.38;;
21472;SDS011;10898;48.072;11.682;2024-03-22T07:49:42;10.40;;;6.75;;
21472;SDS011;10898;48.072;11.682;2024-03-22T07:51:43;7.03;;;6.15;;
21472;SDS011;10898;48.072;11.682;2024-03-22T07:53:44;7.47;;;5.75;;
21472;SDS011;10898;48.072;11.682;2024-03-22T07:55:45;8.05;;;6.30;;
21472;SDS011;10898;48.072;11.682;2024-03-22T07:57:46;6.70;;;5.97;;
21472;SDS011;10898;48.072;11.682;2024-03-22T07:59:47;6.43;;;5.55;;
21472;SDS011;10898;48.072;11.682;2024-03-22T08:01:48;8.38;;;6.05;;
21472;SDS011;10898;48.072;11.682;2024-03-22T08:03:49;6.75;;;5.53;;
21472;SDS011;10898;48.072;11.682;2024-03-22T08:05:51;6.95;;;6.25;;
21472;SDS011;10898;48.072;11.682;2024-03-22T08:07:52;6.03;;;5.35;;
21472;SDS011;10898;48.072;11.682;2024-03-22T08:09:53;7.43;;;6.00;;
21472;SDS011;10898;48.072;11.682;2024-03-22T08:11:56;5.40;;;4.82;;
21472;SDS011;10898;48.072;11.682;2024-03-22T08:13:56;6.47;;;5.70;;
21472;SDS011;10898;48.072;11.682;2024-03-22T08:16:02;7.70;;;5.40;;
21472;SDS011;10898;48.072;11.682;2024-03-22T08:18:04;5.43;;;4.93;;
21472;SDS011;10898;48.072;11.682;2024-03-22T08:20:05;6.60;;;4.90;;
21472;SDS011;10898;48.072;11.682;2024-03-22T08:22:06;4.80;;;4.40;;
21472;SDS011;10898;48.072;11.682;2024-03-22T08:24:07;5.88;;;5.22;;
21472;SDS011;10898;48.072;11.682;2024-03-22T08:26:08;7.63;;;5.15;;
21472;SDS011;10898;48.072;11.682;2024-03-22T08:28:09;5.55;;;4.80;;
21472;SDS011;10898;48.072;11.682;2024-03-22T08:30:10;5.07;;;4.57;;
21472;SDS011;10898;48.072;11.682;2024-03-22T08:32:11;5.85;;;5.32;;
21472;SDS011;10898;48.072;11.682;2024-03-22T08:34:12;5.57;;;4.57;;
21472;SDS011;10898;48.072;11.682;2024-03-22T08:36:13;6.05;;;4.50;;
21472;SDS011;10898;48.072;11.682;2024-03-22T08:38:14;7.68;;;5.03;;
21472;SDS011;10898;48.072;11.682;2024-03-22T08:40:15;6.32;;;4.85;;
21472;SDS011;10898;48.072;11.682;2024-03-22T08:42:16;6.55;;;4.05;;
21472;SDS011;10898;48.072;11.682;2024-03-22T08:44:16;6.50;;;4.10;;
21472;SDS011;10898;48.072;11.682;2024-03-22T08:46:18;5.18;;;3.97;;
21472;SDS011;10898;48.072;11.682;2024-03-22T08:48:21;4.53;;;3.95;;
21472;SDS011;10898;48.072;11.682;2024-03-22T08:50:22;4.93;;;4.20;;
21472;SDS011;10898;48.072;11.682;2024-03-22T08:52:23;4.90;;;4.20;;
21472;SDS011;10898;48.072;11.682;2024-03-22T08:54:24;4.72;;;4.32;;
21472;SDS011;10898;48.072;11.682;2024-03-22T08:56:25;4.97;;;3.97;;
21472;SDS011;10898;48.072;11.682;2024-03-22T08:58:26;3.85;;;3.55;;
21472;SDS011;10898;48.072;11.682;2024-03-22T09:00:27;4.60;;;4.20;;
21472;SDS011;10898;48.072;11.682;2024-03-22T09:02:29;5.47;;;4.40;;
21472;SDS011;10898;48.072;11.682;2024-03-22T09:04:30;4.30;;;3.92;;
21472;SDS011;10898;48.072;11.682;2024-03-22T09:06:30;4.82;;;4.40;;
21472;SDS011;10898;48.072;11.682;2024-03-22T09:08:31;5.18;;;4.40;;
21472;SDS011;10898;48.072;11.682;2024-03-22T09:10:34;4.43;;;4.03;;
21472;SDS011;10898;48.072;11.682;2024-03-22T09:12:35;4.20;;;3.80;;
21472;SDS011;10898;48.072;11.682;2024-03-22T09:14:36;4.10;;;3.70;;
21472;SDS011;10898;48.072;11.682;2024-03-22T09:16:37;4.43;;;4.03;;
21472;SDS011;10898;48.072;11.682;2024-03-22T09:18:37;4.50;;;4.00;;
21472;SDS011;10898;48.072;11.682;2024-03-22T09:20:38;4.45;;;3.78;;
21472;SDS011;10898;48.072;11.682;2024-03-22T09:22:39;5.05;;;4.55;;
21472;SDS011;10898;48.072;11.682;2024-03-22T09:24:40;4.38;;;3.97;;
21472;SDS011;10898;48.072;11.682;2024-03-22T09:26:41;4.03;;;3.47;;
21472;SDS011;10898;48.072;11.682;2024-03-22T09:28:42;4.38;;;3.90;;
21472;SDS011;10898;48.072;11.682;2024-03-22T09:30:47;4.38;;;3.97;;
21472;SDS011;10898;48.072;11.682;2024-03-22T09:32:48;5.40;;;4.15;;
21472;SDS011;10898;48.072;11.682;2024-03-22T09:34:49;4.55;;;3.80;;
21472;SDS011;10898;48.072;11.682;2024-03-22T09:36:50;4.40;;;3.78;;
21472;SDS011;10898;48.072;11.682;2024-03-22T09:38:51;4.18;;;3.50;;
21472;SDS011;10898;48.072;11.682;2024-03-22T09:40:52;4.88;;;4.38;;
21472;SDS011;10898;48.072;11.682;2024-03-22T09:42:54;5.72;;;4.57;;
21472;SDS011;10898;48.072;11.682;2024-03-22T09:45:02;4.40;;;4.00;;
21472;SDS011;10898;48.072;11.682;2024-03-22T09:47:03;6.05;;;4.43;;
21472;SDS011;10898;48.072;11.682;2024-03-22T09:49:05;6.13;;;4.70;;
21472;SDS011;10898;48.072;11.682;2024-03-22T09:51:07;4.88;;;4.38;;
21472;SDS011;10898;48.072;11.682;2024-03-22T09:53:08;5.07;;;4.53;;
21472;SDS011;10898;48.072;11.682;2024-03-22T09:55:11;4.60;;;3.75;;
21472;SDS011;10898;48.072;11.682;2024-03-22T09:57:14;4.50;;;4.03;;
21472;SDS011;10898;48.072;11.682;2024-03-22T09:59:18;6.70;;;3.80;;
21472;SDS011;10898;48.072;11.682;2024-03-22T10:01:19;4.85;;;3.85;;
21472;SDS011;10898;48.072;11.682;2024-03-22T10:03:20;3.72;;;3.40;;
21472;SDS011;10898;48.072;11.682;2024-03-22T10:05:21;4.55;;;4.15;;
21472;SDS011;10898;48.072;11.682;2024-03-22T10:07:22;4.00;;;3.58;;
21472;SDS011;10898;48.072;11.682;2024-03-22T10:09:29;6.00;;;3.75;;
21472;SDS011;10898;48.072;11.682;2024-03-22T10:11:30;4.03;;;3.08;;
21472;SDS011;10898;48.072;11.682;2024-03-22T10:13:31;4.35;;;3.63;;
21472;SDS011;10898;48.072;11.682;2024-03-22T10:15:32;4.10;;;3.28;;
21472;SDS011;10898;48.072;11.682;2024-03-22T10:17:34;5.13;;;3.42;;
21472;SDS011;10898;48.072;11.682;2024-03-22T10:19:35;5.18;;;3.60;;
21472;SDS011;10898;48.072;11.682;2024-03-22T10:21:37;5.28;;;3.67;;
21472;SDS011;10898;48.072;11.682;2024-03-22T10:23:38;3.53;;;3.22;;
21472;SDS011;10898;48.072;11.682;2024-03-22T10:25:39;3.53;;;3.10;;
21472;SDS011;10898;48.072;11.682;2024-03-22T10:27:40;3.47;;;3.17;;
21472;SDS011;10898;48.072;11.682;2024-03-22T10:29:41;3.17;;;2.90;;
21472;SDS011;10898;48.072;11.682;2024-03-22T10:31:42;3.58;;;2.72;;
21472;SDS011;10898;48.072;11.682;2024-03-22T10:33:46;3.60;;;2.42;;
21472;SDS011;10898;48.072;11.682;2024-03-22T10:35:51;4.35;;;3.15;;
21472;SDS011;10898;48.072;11.682;2024-03-22T10:37:53;4.50;;;3.08;;
21472;SDS011;10898;48.072;11.682;2024-03-22T10:39:54;4.00;;;3.22;;
21472;SDS011;10898;48.072;11.682;2024-03-22T10:41:56;4.05;;;2.63;;
21472;SDS011;10898;48.072;11.682;2024-03-22T10:43:57;3.78;;;3.08;;
21472;SDS011;10898;48.072;11.682;2024-03-22T10:46:00;4.80;;;3.22;;
21472;SDS011;10898;48.072;11.682;2024-03-22T10:48:09;3.70;;;2.97;;
21472;SDS011;10898;48.072;11.682;2024-03-22T10:50:11;3.78;;;2.80;;
21472;SDS011;10898;48.072;11.682;2024-03-22T10:52:12;4.43;;;2.92;;
21472;SDS011;10898;48.072;11.682;2024-03-22T10:54:15;3.92;;;2.72;;
21472;SDS011;10898;48.072;11.682;2024-03-22T10:56:20;5.50;;;3.10;;
21472;SDS011;10898;48.072;11.682;2024-03-22T10:58:24;4.93;;;3.53;;
21472;SDS011;10898;48.072;11.682;2024-03-22T11:00:28;4.43;;;3.40;;
21472;SDS011;10898;48.072;11.682;2024-03-22T11:02:30;3.13;;;2.83;;
21472;SDS011;10898;48.072;11.682;2024-03-22T11:04:30;4.32;;;3.03;;
21472;SDS011;10898;48.072;11.682;2024-03-22T11:06:32;3.17;;;2.88;;
21472;SDS011;10898;48.072;11.682;2024-03-22T11:08:33;4.60;;;2.70;;
21472;SDS011;10898;48.072;11.682;2024-03-22T11:10:37;4.45;;;3.58;;
21472;SDS011;10898;48.072;11.682;2024-03-22T11:12:41;4.00;;;3.65;;
21472;SDS011;10898;48.072;11.682;2024-03-22T11:14:42;4.82;;;3.38;;
21472;SDS011;10898;48.072;11.682;2024-03-22T11:16:43;4.85;;;3.33;;
21472;SDS011;10898;48.072;11.682;2024-03-22T11:18:45;5.22;;;4.25;;
21472;SDS011;10898;48.072;11.682;2024-03-22T11:20:45;6.50;;;3.47;;
21472;SDS011;10898;48.072;11.682;2024-03-22T11:22:47;3.97;;;3.50;;
21472;SDS011;10898;48.072;11.682;2024-03-22T11:24:48;3.33;;;3.03;;
21472;SDS011;10898;48.072;11.682;2024-03-22T11:26:49;3.45;;;2.60;;
21472;SDS011;10898;48.072;11.682;2024-03-22T11:28:50;4.45;;;3.53;;
21472;SDS011;10898;48.072;11.682;2024-03-22T11:30:51;5.45;;;3.42;;
21472;SDS011;10898;48.072;11.682;2024-03-22T11:32:52;3.80;;;3.10;;
21472;SDS011;10898;48.072;11.682;2024-03-22T11:34:54;4.53;;;3.47;;
21472;SDS011;10898;48.072;11.682;2024-03-22T11:36:55;3.22;;;2.92;;
21472;SDS011;10898;48.072;11.682;2024-03-22T11:38:56;4.97;;;3.58;;
21472;SDS011;10898;48.072;11.682;2024-03-22T11:40:57;3.67;;;2.75;;
21472;SDS011;10898;48.072;11.682;2024-03-22T11:43:00;5.25;;;3.50;;
21472;SDS011;10898;48.072;11.682;2024-03-22T11:45:01;5.53;;;3.77;;
21472;SDS011;10898;48.072;11.682;2024-03-22T11:49:05;4.97;;;3.50;;
21472;SDS011;10898;48.072;11.682;2024-03-22T11:51:09;3.20;;;2.90;;
21472;SDS011;10898;48.072;11.682;2024-03-22T11:53:10;3.72;;;2.58;;
21472;SDS011;10898;48.072;11.682;2024-03-22T11:55:11;3.08;;;2.55;;
21472;SDS011;10898;48.072;11.682;2024-03-22T11:57:12;4.43;;;3.03;;